This is the latest recevied weather packets stored in our database for station/object WB5NHL-13. If no packets are shown the sender has not sent any weather packets the latest 10 day(s).
| Time | Temp. | Humidity | Pressure | Rain* | Wind** | Luminosity | Snow |
|---|---|---|---|---|---|---|---|
| 1778146539 | 19.44° C | 99% | 1010.8 hPa | 3.56 mm | - | - | - |
| 1778143515 | 20° C | 99% | 1011.8 hPa | 3.05 mm | - | - | - |
| 1778141717 | 20° C | 99% | 1012 hPa | 2.03 mm | - | - | - |
| 1778138720 | 21.11° C | 94% | 1011.5 hPa | 0.25 mm | - | - | - |
| 1778124932 | 25° C | 64% | 1013.1 hPa | 0 mm | - | - | - |
| 1778119523 | 25.56° C | 64% | 1011.8 hPa | 0 mm | - | - | - |
| 1778118316 | 25.56° C | 65% | 1011.1 hPa | 0 mm | - | - | - |
| 1778117751 | 26.11° C | 65% | 1011.1 hPa | 0 mm | - | - | - |
| 1778116519 | 26.11° C | 64% | 1011 hPa | 0 mm | - | - | - |
| 1778112322 | 27.78° C | 60% | 1011.5 hPa | 0 mm | - | - | - |
| 1778110530 | 28.89° C | 57% | 1011.5 hPa | 0 mm | - | - | - |
| 1778108721 | 29.44° C | 54% | 1011.1 hPa | 0 mm | - | - | - |
| 1778108124 | 30° C | 53% | 1011 hPa | 0 mm | - | - | - |
| 1778107521 | 30° C | 53% | 1011 hPa | 0 mm | - | - | - |
| 1778100346 | 31.67° C | 48% | 1011.4 hPa | 0 mm | - | - | - |
| 1778097322 | 31.67° C | 49% | 1012.5 hPa | 0 mm | - | - | - |
| 1778096725 | 31.67° C | 49% | 1012.8 hPa | 0 mm | - | - | - |
| 1778088329 | 25° C | 74% | 1015.2 hPa | 0 mm | - | - | - |
| 1778087117 | 25° C | 75% | 1015.4 hPa | 0 mm | - | - | - |
| 1778085943 | 24.44° C | 77% | 1015.8 hPa | 0 mm | - | - | - |
| 1778085326 | 24.44° C | 77% | 1016 hPa | 0 mm | - | - | - |
| 1778084119 | 23.89° C | 81% | 1016 hPa | 0 mm | - | - | - |
| 1778075121 | 20° C | 89% | 1015.3 hPa | 0 mm | - | - | - |
| 1778068517 | 16.67° C | 95% | 1014.7 hPa | 0 mm | - | - | - |
| 1778067920 | 16.67° C | 95% | 1014.6 hPa | 0 mm | - | - | - |
* Rain latest hour (hover to see other rain measurements)
** Current wind speed in m/s (hover to see current wind gust speed)